createdAt,value
2019-01-27T00:02:10.864Z,5.60
2019-01-27T00:04:37.817Z,5.60
2019-01-27T00:07:04.777Z,5.60
2019-01-27T00:09:31.723Z,5.50
2019-01-27T00:11:58.668Z,3.60
2019-01-27T00:14:25.637Z,5.60
2019-01-27T00:16:52.649Z,5.80
2019-01-27T00:19:19.585Z,6.20
2019-01-27T00:21:46.566Z,5.60
2019-01-27T00:24:13.506Z,5.50
2019-01-27T00:26:40.438Z,5.60
2019-01-27T00:29:07.391Z,5.50
2019-01-27T00:31:34.327Z,5.50
2019-01-27T00:34:01.286Z,5.50
2019-01-27T00:36:28.256Z,5.60
2019-01-27T00:38:55.196Z,5.50
2019-01-27T00:41:22.124Z,5.50
2019-01-27T00:43:49.591Z,5.50
2019-01-27T00:46:16.520Z,5.50
2019-01-27T00:48:43.488Z,5.50
2019-01-27T00:51:10.440Z,5.60
2019-01-27T00:53:37.383Z,5.60
2019-01-27T00:56:04.648Z,5.60
2019-01-27T00:58:31.589Z,5.60
2019-01-27T01:00:58.516Z,5.70
2019-01-27T01:03:25.548Z,5.60
2019-01-27T01:05:52.497Z,5.60
2019-01-27T01:08:19.426Z,6.00
2019-01-27T01:10:46.372Z,5.60
2019-01-27T01:13:13.332Z,5.70
2019-01-27T01:15:40.267Z,5.60
2019-01-27T01:18:07.208Z,5.50
2019-01-27T01:20:34.176Z,5.50
2019-01-27T01:23:01.131Z,5.50
2019-01-27T01:25:28.062Z,5.50
2019-01-27T01:27:55.041Z,5.50
2019-01-27T01:30:25.175Z,5.50
2019-01-27T01:32:52.095Z,5.60
2019-01-27T01:35:19.064Z,5.60
2019-01-27T01:37:45.998Z,5.50
2019-01-27T01:40:15.223Z,5.60
2019-01-27T01:42:42.160Z,5.50
2019-01-27T01:45:13.932Z,5.70
2019-01-27T01:47:40.862Z,5.50
2019-01-27T01:50:07.871Z,5.40
2019-01-27T01:52:34.808Z,5.40
2019-01-27T01:55:01.749Z,5.50
2019-01-27T01:57:28.710Z,5.60
2019-01-27T01:59:55.660Z,5.40
2019-01-27T02:02:22.609Z,5.60
2019-01-27T02:04:49.557Z,5.60
2019-01-27T02:07:16.488Z,5.50
2019-01-27T02:09:43.449Z,5.50
2019-01-27T02:12:10.377Z,5.40
2019-01-27T02:14:37.317Z,5.50
2019-01-27T02:17:04.264Z,5.40
2019-01-27T02:19:31.214Z,5.50
2019-01-27T02:21:58.153Z,5.40
2019-01-27T02:24:25.085Z,5.30
2019-01-27T02:26:52.035Z,5.50
2019-01-27T02:29:18.968Z,5.50
2019-01-27T02:31:45.903Z,5.50
2019-01-27T02:34:12.880Z,5.50
2019-01-27T02:36:39.804Z,5.50
2019-01-27T02:39:08.004Z,5.40
2019-01-27T02:41:34.983Z,5.60
2019-01-27T02:44:01.925Z,5.60
2019-01-27T02:46:29.301Z,5.70
2019-01-27T02:48:56.251Z,5.50
2019-01-27T02:51:23.186Z,5.50
2019-01-27T02:53:50.129Z,5.50
2019-01-27T02:56:17.058Z,5.50
2019-01-27T02:58:43.987Z,5.60
2019-01-27T03:01:10.926Z,5.50
2019-01-27T03:03:37.878Z,5.60
2019-01-27T03:06:10.078Z,5.50
2019-01-27T03:08:41.232Z,5.60
2019-01-27T03:11:08.157Z,5.80
2019-01-27T03:13:35.113Z,5.50
2019-01-27T03:16:02.072Z,5.50
2019-01-27T03:18:29.003Z,5.50
2019-01-27T03:20:55.945Z,5.50
2019-01-27T03:23:22.909Z,5.50
2019-01-27T03:25:49.846Z,5.50
2019-01-27T03:28:16.775Z,5.40
2019-01-27T03:30:43.722Z,4.10
2019-01-27T03:33:10.644Z,5.40
2019-01-27T03:35:37.594Z,5.30
2019-01-27T03:38:04.555Z,5.40
2019-01-27T03:40:31.485Z,5.30
2019-01-27T03:42:58.415Z,5.40
2019-01-27T03:45:25.364Z,5.40
2019-01-27T03:47:52.555Z,5.40
2019-01-27T03:50:19.493Z,5.40
2019-01-27T03:52:46.461Z,5.40
2019-01-27T03:55:15.158Z,5.50
2019-01-27T03:57:42.081Z,5.40
2019-01-27T04:00:13.257Z,5.60
2019-01-27T04:02:40.180Z,5.40
2019-01-27T04:05:07.133Z,5.40
2019-01-27T04:07:34.084Z,5.50
2019-01-27T04:10:01.007Z,5.50
2019-01-27T04:12:27.948Z,5.40
2019-01-27T04:14:54.905Z,5.40
2019-01-27T04:17:21.846Z,5.40
2019-01-27T04:19:48.775Z,5.40
2019-01-27T04:22:15.736Z,5.30
2019-01-27T04:24:42.663Z,5.40
2019-01-27T04:27:09.597Z,5.40
2019-01-27T04:29:36.550Z,5.40
2019-01-27T04:32:03.475Z,5.30
2019-01-27T04:34:30.400Z,5.30
2019-01-27T04:36:57.343Z,5.30
2019-01-27T04:39:24.271Z,5.20
2019-01-27T04:41:51.197Z,5.30
2019-01-27T04:44:18.138Z,5.20
2019-01-27T04:46:45.058Z,5.30
2019-01-27T04:49:12.276Z,5.30
2019-01-27T04:51:39.232Z,5.30
2019-01-27T04:54:06.169Z,5.40
2019-01-27T04:56:33.100Z,5.40
2019-01-27T04:59:00.053Z,5.50
2019-01-27T05:01:26.980Z,5.70
2019-01-27T05:04:13.540Z,5.60
2019-01-27T05:06:40.465Z,5.70
2019-01-27T05:09:08.571Z,5.70
2019-01-27T05:11:35.536Z,5.60
2019-01-27T05:14:02.464Z,5.70
2019-01-27T05:16:29.396Z,5.80
2019-01-27T05:18:56.338Z,5.80
2019-01-27T05:21:23.269Z,5.80
2019-01-27T05:23:50.206Z,5.90
2019-01-27T05:26:17.140Z,5.90
2019-01-27T05:28:44.073Z,5.90
2019-01-27T05:31:10.991Z,5.70
2019-01-27T05:33:37.978Z,5.80
2019-01-27T05:36:04.913Z,5.80
2019-01-27T05:38:31.868Z,5.70
2019-01-27T05:40:58.824Z,5.70
2019-01-27T05:43:25.748Z,5.60
2019-01-27T05:45:52.699Z,5.60
2019-01-27T05:48:19.640Z,5.60
2019-01-27T05:50:46.947Z,5.60
2019-01-27T05:53:13.875Z,5.50
2019-01-27T05:55:40.854Z,5.50
2019-01-27T05:58:07.787Z,5.50
2019-01-27T06:00:38.968Z,5.50
2019-01-27T06:03:05.924Z,5.50
2019-01-27T06:05:32.877Z,5.40
2019-01-27T06:07:59.795Z,5.40
2019-01-27T06:10:26.743Z,5.50
2019-01-27T06:12:53.685Z,5.50
2019-01-27T06:15:20.632Z,5.40
2019-01-27T06:17:47.595Z,5.70
2019-01-27T06:20:14.549Z,5.50
2019-01-27T06:22:41.484Z,5.50
2019-01-27T06:25:10.614Z,5.50
2019-01-27T06:27:37.542Z,5.50
2019-01-27T06:30:07.143Z,5.50
2019-01-27T06:32:45.493Z,5.60
2019-01-27T06:35:12.420Z,5.60
2019-01-27T06:37:39.358Z,5.60
2019-01-27T06:40:06.388Z,5.70
2019-01-27T06:42:33.358Z,5.60
2019-01-27T06:45:00.280Z,5.70
2019-01-27T06:47:27.226Z,5.60
2019-01-27T06:49:54.169Z,5.70
2019-01-27T06:52:21.636Z,5.70
2019-01-27T06:54:49.004Z,5.80
2019-01-27T06:57:15.991Z,5.90
2019-01-27T06:59:52.464Z,5.90
2019-01-27T07:02:30.701Z,5.80
2019-01-27T07:05:10.424Z,6.00
2019-01-27T07:08:02.845Z,5.90
2019-01-27T07:10:35.631Z,5.90
2019-01-27T07:13:09.435Z,5.90
2019-01-27T07:15:47.871Z,5.90
2019-01-27T07:18:26.380Z,5.90
2019-01-27T07:21:03.469Z,5.80
2019-01-27T07:23:38.188Z,6.00
2019-01-27T07:26:25.675Z,6.00
2019-01-27T07:29:01.501Z,6.20
2019-01-27T07:31:48.833Z,6.10
2019-01-27T07:34:26.287Z,6.10
2019-01-27T07:37:09.289Z,6.10
2019-01-27T07:39:53.869Z,6.20
2019-01-27T07:42:43.120Z,6.20
2019-01-27T07:45:20.340Z,6.20
2019-01-27T07:48:08.937Z,6.20
2019-01-27T07:51:01.486Z,6.30
2019-01-27T07:53:50.575Z,6.30
2019-01-27T07:56:33.364Z,6.30
2019-01-27T07:59:06.749Z,6.30
2019-01-27T08:01:49.523Z,6.30
2019-01-27T08:04:23.640Z,6.30
2019-01-27T08:07:01.055Z,6.30
2019-01-27T08:09:35.710Z,6.30
2019-01-27T08:12:14.073Z,6.40
2019-01-27T08:14:46.891Z,6.40
2019-01-27T08:17:36.224Z,6.40
2019-01-27T08:20:17.150Z,6.40
2019-01-27T08:22:52.067Z,6.50
2019-01-27T08:25:42.696Z,6.50
2019-01-27T08:28:21.700Z,6.60
2019-01-27T08:30:54.444Z,6.70
2019-01-27T08:33:27.319Z,6.80
2019-01-27T08:35:59.364Z,7.10
2019-01-27T08:38:49.988Z,7.20
2019-01-27T08:41:28.078Z,7.30
2019-01-27T08:44:10.056Z,7.50
2019-01-27T08:46:42.427Z,7.60
2019-01-27T08:49:09.350Z,7.80
2019-01-27T08:51:36.280Z,8.10
2019-01-27T08:54:04.252Z,8.70
2019-01-27T08:56:31.209Z,8.90
2019-01-27T08:58:58.127Z,9.30
2019-01-27T09:01:37.388Z,9.10
2019-01-27T09:04:10.830Z,9.00
2019-01-27T09:07:00.453Z,8.80
2019-01-27T09:09:45.925Z,9.10
2019-01-27T09:12:29.336Z,9.90
2019-01-27T09:15:06.296Z,10.90
2019-01-27T09:17:56.838Z,11.60
2019-01-27T09:20:33.276Z,12.00
2019-01-27T09:23:14.900Z,13.00
2019-01-27T09:25:47.568Z,12.50
2019-01-27T09:28:19.938Z,11.60
2019-01-27T09:30:58.499Z,10.80
2019-01-27T09:33:35.493Z,10.50
2019-01-27T09:36:08.288Z,10.90
2019-01-27T09:38:44.210Z,11.60
2019-01-27T09:41:30.751Z,12.30
2019-01-27T09:44:17.325Z,12.00
2019-01-27T09:46:49.952Z,13.20
2019-01-27T09:49:30.859Z,14.10
2019-01-27T09:52:04.960Z,14.80
2019-01-27T09:54:49.663Z,15.00
2019-01-27T09:57:38.064Z,15.50
2019-01-27T10:00:19.883Z,16.30
2019-01-27T10:02:58.800Z,16.30
2019-01-27T10:05:33.855Z,16.20
2019-01-27T10:08:21.295Z,16.30
2019-01-27T10:10:59.324Z,16.70
2019-01-27T10:13:36.656Z,15.80
2019-01-27T10:16:09.353Z,14.90
2019-01-27T10:18:59.707Z,14.10
2019-01-27T10:21:32.431Z,13.60
2019-01-27T10:24:08.588Z,11.40
2019-01-27T10:26:45.059Z,12.80
2019-01-27T10:29:32.580Z,12.50
2019-01-27T10:32:20.013Z,12.30
2019-01-27T10:34:59.478Z,11.90
2019-01-27T10:37:51.394Z,11.40
2019-01-27T10:40:24.608Z,11.90
2019-01-27T10:43:01.993Z,12.00
2019-01-27T10:45:41.217Z,11.80
2019-01-27T10:48:16.316Z,11.40
2019-01-27T10:50:49.111Z,11.30
2019-01-27T10:53:34.960Z,11.30
2019-01-27T10:56:10.268Z,11.70
2019-01-27T10:58:45.217Z,11.90
2019-01-27T11:01:17.984Z,11.90
2019-01-27T11:03:54.178Z,13.20
2019-01-27T11:06:40.836Z,15.40
2019-01-27T11:09:17.039Z,17.30
2019-01-27T11:11:58.612Z,18.50
2019-01-27T11:14:45.199Z,19.10
2019-01-27T11:17:25.790Z,19.90
2019-01-27T11:20:02.486Z,19.10
2019-01-27T11:22:35.132Z,18.70
2019-01-27T11:25:24.701Z,17.80
2019-01-27T11:28:04.684Z,16.10
2019-01-27T11:30:42.816Z,17.00
2019-01-27T11:33:30.171Z,17.60
2019-01-27T11:36:05.596Z,18.30
2019-01-27T11:38:38.283Z,18.50
2019-01-27T11:41:16.809Z,17.80
2019-01-27T11:43:52.721Z,16.40
2019-01-27T11:46:29.021Z,15.70
2019-01-27T11:49:01.166Z,14.80
2019-01-27T11:51:34.464Z,14.10
2019-01-27T11:54:01.392Z,13.50
2019-01-27T11:56:29.664Z,13.10
2019-01-27T11:58:56.616Z,12.90
2019-01-27T12:01:23.552Z,12.90
2019-01-27T12:03:50.502Z,12.90
2019-01-27T12:06:17.456Z,12.80
2019-01-27T12:08:44.387Z,12.50
2019-01-27T12:11:11.344Z,12.20
2019-01-27T12:13:38.295Z,12.00
2019-01-27T12:16:05.229Z,11.80
2019-01-27T12:18:32.157Z,11.80
2019-01-27T12:20:59.115Z,12.10
2019-01-27T12:23:26.049Z,12.20
2019-01-27T12:25:52.987Z,12.40
2019-01-27T12:28:19.936Z,13.30
2019-01-27T12:30:47.005Z,14.10
2019-01-27T12:33:13.948Z,14.40
2019-01-27T12:35:40.907Z,15.00
2019-01-27T12:38:07.844Z,16.30
2019-01-27T12:40:34.782Z,17.30
2019-01-27T12:43:01.744Z,17.00
2019-01-27T12:45:28.673Z,16.60
2019-01-27T12:47:55.615Z,17.40
2019-01-27T12:50:22.588Z,18.40
2019-01-27T12:52:50.175Z,18.90
2019-01-27T12:55:17.108Z,18.80
2019-01-27T12:57:44.460Z,16.40
2019-01-27T13:00:15.212Z,16.30
2019-01-27T13:02:42.170Z,15.00
2019-01-27T13:05:10.440Z,13.10
2019-01-27T13:07:36.089Z,13.10
2019-01-27T13:10:04.366Z,13.00
2019-01-27T13:12:31.310Z,13.00
2019-01-27T13:14:58.243Z,12.80
2019-01-27T13:17:25.191Z,12.70
2019-01-27T13:19:53.879Z,12.80
2019-01-27T13:22:19.064Z,13.00
2019-01-27T13:24:46.366Z,12.90
2019-01-27T13:27:13.307Z,12.50
2019-01-27T13:29:40.255Z,12.20
2019-01-27T13:32:07.192Z,11.90
2019-01-27T13:34:34.144Z,11.50
2019-01-27T13:37:01.071Z,11.30
2019-01-27T13:39:28.008Z,11.20
2019-01-27T13:41:54.966Z,10.90
2019-01-27T13:44:21.925Z,10.70
2019-01-27T13:46:48.857Z,10.40
2019-01-27T13:49:15.803Z,10.40
2019-01-27T13:51:42.725Z,7.20
2019-01-27T13:54:09.660Z,10.20
2019-01-27T13:56:36.600Z,10.10
2019-01-27T13:59:05.018Z,10.20
2019-01-27T14:01:31.961Z,10.20
2019-01-27T14:03:58.911Z,10.10
2019-01-27T14:06:25.850Z,10.20
2019-01-27T14:08:52.772Z,10.10
2019-01-27T14:11:19.719Z,10.10
2019-01-27T14:13:46.657Z,10.10
2019-01-27T14:16:13.582Z,10.10
2019-01-27T14:18:40.534Z,10.30
2019-01-27T14:21:07.448Z,10.30
2019-01-27T14:23:34.384Z,10.40
2019-01-27T14:26:01.345Z,10.40
2019-01-27T14:28:28.281Z,10.50
2019-01-27T14:30:55.204Z,10.50
2019-01-27T14:33:22.143Z,10.50
2019-01-27T14:35:49.080Z,10.50
2019-01-27T14:38:16.096Z,10.20
2019-01-27T14:40:43.052Z,10.10
2019-01-27T14:43:09.976Z,7.40
2019-01-27T14:45:36.912Z,10.00
2019-01-27T14:48:04.215Z,9.90
2019-01-27T14:50:34.716Z,9.90
2019-01-27T14:53:01.651Z,9.90
2019-01-27T14:55:28.607Z,7.70
2019-01-27T14:57:55.534Z,9.90
2019-01-27T15:00:26.600Z,9.90
2019-01-27T15:02:53.553Z,9.90
2019-01-27T15:05:20.487Z,10.00
2019-01-27T15:07:47.416Z,9.90
2019-01-27T15:10:15.820Z,9.80
2019-01-27T15:12:42.757Z,9.70
2019-01-27T15:15:12.387Z,9.80
2019-01-27T15:17:39.351Z,9.70
2019-01-27T15:20:10.401Z,9.90
2019-01-27T15:22:37.340Z,9.70
2019-01-27T15:25:04.423Z,10.10
2019-01-27T15:27:31.412Z,9.70
2019-01-27T15:29:58.343Z,9.70
2019-01-27T15:32:25.300Z,9.60
2019-01-27T15:34:52.242Z,9.70
2019-01-27T15:37:19.176Z,9.60
2019-01-27T15:39:46.133Z,9.60
2019-01-27T15:42:13.064Z,9.60
2019-01-27T15:44:40.009Z,9.60
2019-01-27T15:47:06.973Z,9.60
2019-01-27T15:49:33.900Z,9.50
2019-01-27T15:52:00.858Z,9.50
2019-01-27T15:54:27.772Z,9.50
2019-01-27T15:56:54.701Z,9.50
2019-01-27T15:59:21.624Z,9.40
2019-01-27T16:01:49.216Z,9.50
2019-01-27T16:04:16.213Z,9.40
2019-01-27T16:06:43.136Z,9.30
2019-01-27T16:09:10.106Z,9.30
2019-01-27T16:11:37.040Z,9.80
2019-01-27T16:14:04.573Z,9.30
2019-01-27T16:16:31.539Z,9.30
2019-01-27T16:18:58.952Z,9.20
2019-01-27T16:21:25.403Z,9.20
2019-01-27T16:23:55.765Z,9.20
2019-01-27T16:26:22.700Z,9.10
2019-01-27T16:28:49.630Z,9.20
2019-01-27T16:31:22.381Z,7.50
2019-01-27T16:33:53.363Z,9.00
2019-01-27T16:36:20.301Z,9.10
2019-01-27T16:38:47.266Z,8.90
2019-01-27T16:41:14.180Z,8.80
2019-01-27T16:43:41.132Z,9.00
2019-01-27T16:46:08.080Z,8.60
2019-01-27T16:48:35.008Z,8.80
2019-01-27T16:51:01.968Z,8.70
2019-01-27T16:53:28.916Z,6.00
2019-01-27T16:55:55.880Z,8.60
2019-01-27T16:58:22.792Z,8.50
2019-01-27T17:00:49.746Z,8.50
2019-01-27T17:03:18.051Z,8.50
2019-01-27T17:05:44.975Z,8.30
2019-01-27T17:08:11.928Z,6.20
2019-01-27T17:10:38.844Z,8.20
2019-01-27T17:13:05.787Z,8.20
2019-01-27T17:15:32.741Z,8.10
2019-01-27T17:17:59.664Z,8.00
2019-01-27T17:20:26.600Z,9.50
2019-01-27T17:22:53.555Z,7.80
2019-01-27T17:25:20.500Z,7.90
2019-01-27T17:27:47.415Z,7.80
2019-01-27T17:30:15.312Z,7.70
2019-01-27T17:32:42.261Z,8.10
2019-01-27T17:35:10.717Z,7.70
2019-01-27T17:37:37.668Z,7.70
2019-01-27T17:40:05.646Z,7.90
2019-01-27T17:42:32.577Z,7.70
2019-01-27T17:44:59.527Z,7.70
2019-01-27T17:47:26.451Z,7.60
2019-01-27T17:49:53.380Z,7.70
2019-01-27T17:52:20.336Z,7.60
2019-01-27T17:54:47.268Z,7.50
2019-01-27T17:57:22.892Z,7.50
2019-01-27T17:59:58.745Z,7.60
2019-01-27T18:02:32.154Z,7.60
2019-01-27T18:05:14.246Z,5.00
2019-01-27T18:07:49.303Z,7.40
2019-01-27T18:10:26.182Z,7.40
2019-01-27T18:13:00.183Z,7.40
2019-01-27T18:15:27.094Z,7.30
2019-01-27T18:17:54.030Z,7.30
2019-01-27T18:20:20.982Z,7.30
2019-01-27T18:22:48.047Z,7.40
2019-01-27T18:25:14.978Z,7.30
2019-01-27T18:27:41.937Z,7.20
2019-01-27T18:30:13.036Z,7.20
2019-01-27T18:32:39.961Z,7.20
2019-01-27T18:35:06.919Z,7.20
2019-01-27T18:37:33.831Z,7.10
2019-01-27T18:40:00.769Z,7.00
2019-01-27T18:42:27.766Z,7.00
2019-01-27T18:44:54.702Z,7.10
2019-01-27T18:47:21.628Z,7.00
2019-01-27T18:49:48.565Z,7.10
2019-01-27T18:52:15.500Z,7.00
2019-01-27T18:54:50.083Z,7.00
2019-01-27T18:57:32.933Z,6.90
2019-01-27T19:00:10.228Z,6.90
2019-01-27T19:02:44.079Z,7.00
2019-01-27T19:05:17.615Z,7.00
2019-01-27T19:07:53.544Z,6.90
2019-01-27T19:10:26.214Z,6.90
2019-01-27T19:13:18.754Z,7.00
2019-01-27T19:15:57.816Z,6.90
2019-01-27T19:18:34.180Z,7.00
2019-01-27T19:21:07.481Z,6.90
2019-01-27T19:23:55.035Z,6.90
2019-01-27T19:26:31.581Z,6.80
2019-01-27T19:29:04.203Z,6.90
2019-01-27T19:31:37.464Z,6.70
2019-01-27T19:34:11.480Z,6.80
2019-01-27T19:36:44.764Z,6.80
2019-01-27T19:39:21.635Z,6.70
2019-01-27T19:41:54.903Z,6.70
2019-01-27T19:44:28.436Z,6.70
2019-01-27T19:47:02.357Z,6.70
2019-01-27T19:49:37.482Z,6.80
2019-01-27T19:52:16.852Z,6.60
2019-01-27T19:54:49.595Z,6.70
2019-01-27T19:57:22.244Z,6.60
2019-01-27T19:59:58.143Z,6.60
2019-01-27T20:02:49.599Z,6.70
2019-01-27T20:05:24.893Z,6.60
2019-01-27T20:07:58.330Z,6.60
2019-01-27T20:10:31.175Z,6.70
2019-01-27T20:13:16.499Z,6.70
2019-01-27T20:15:53.081Z,6.60
2019-01-27T20:18:29.174Z,6.50
2019-01-27T20:21:08.133Z,6.50
2019-01-27T20:23:59.586Z,6.40
2019-01-27T20:26:32.324Z,6.30
2019-01-27T20:29:12.058Z,6.20
2019-01-27T20:31:51.324Z,6.00
2019-01-27T20:34:25.581Z,5.90
2019-01-27T20:37:12.125Z,5.90
2019-01-27T20:39:46.476Z,5.90
2019-01-27T20:42:20.907Z,4.60
2019-01-27T20:44:53.697Z,5.60
2019-01-27T20:47:34.456Z,5.60
2019-01-27T20:50:08.385Z,5.60
2019-01-27T20:52:42.171Z,5.50
2019-01-27T20:55:30.956Z,5.50
2019-01-27T20:58:09.459Z,5.50
2019-01-27T21:00:46.356Z,5.50
2019-01-27T21:03:22.595Z,5.40
2019-01-27T21:05:59.742Z,5.40
2019-01-27T21:08:33.597Z,5.40
2019-01-27T21:11:20.162Z,5.30
2019-01-27T21:13:53.087Z,5.30
2019-01-27T21:16:28.036Z,5.50
2019-01-27T21:19:01.749Z,5.20
2019-01-27T21:21:28.697Z,5.40
2019-01-27T21:23:55.612Z,5.10
2019-01-27T21:26:22.553Z,5.80
2019-01-27T21:28:49.512Z,4.90
2019-01-27T21:31:16.640Z,5.20
2019-01-27T21:33:43.668Z,4.60
2019-01-27T21:36:10.634Z,4.60
2019-01-27T21:38:37.557Z,4.50
2019-01-27T21:41:04.507Z,6.20
2019-01-27T21:43:31.469Z,4.40
2019-01-27T21:45:58.412Z,4.20
2019-01-27T21:48:25.353Z,4.20
2019-01-27T21:50:52.336Z,4.10
2019-01-27T21:53:19.306Z,4.00
2019-01-27T21:55:46.257Z,4.70
2019-01-27T21:58:13.208Z,3.90
2019-01-27T22:00:40.185Z,3.80
2019-01-27T22:03:07.121Z,3.90
2019-01-27T22:05:34.067Z,3.90
2019-01-27T22:08:02.488Z,3.90
2019-01-27T22:10:29.412Z,3.80
2019-01-27T22:12:56.363Z,3.80
2019-01-27T22:15:23.300Z,3.70
2019-01-27T22:17:50.253Z,3.60
2019-01-27T22:20:17.203Z,3.40
2019-01-27T22:22:44.144Z,3.20
2019-01-27T22:25:12.066Z,3.50
2019-01-27T22:27:39.016Z,3.30
2019-01-27T22:30:09.178Z,4.80
2019-01-27T22:32:36.112Z,3.30
2019-01-27T22:35:03.316Z,3.30
2019-01-27T22:37:30.254Z,3.30
2019-01-27T22:39:57.184Z,3.50
2019-01-27T22:42:24.141Z,3.40
2019-01-27T22:44:51.084Z,3.50
2019-01-27T22:47:18.020Z,3.50
2019-01-27T22:49:45.007Z,3.50
2019-01-27T22:52:11.920Z,3.60
2019-01-27T22:54:38.857Z,3.60
2019-01-27T22:57:06.395Z,3.50
2019-01-27T22:59:33.325Z,3.60
2019-01-27T23:02:00.252Z,4.10
2019-01-27T23:04:27.262Z,3.60
2019-01-27T23:06:54.197Z,3.60
2019-01-27T23:09:22.616Z,3.60
2019-01-27T23:11:49.660Z,3.60
2019-01-27T23:14:16.596Z,3.60
2019-01-27T23:16:43.534Z,3.60
2019-01-27T23:19:10.532Z,3.70
2019-01-27T23:21:37.459Z,3.80
2019-01-27T23:24:04.423Z,3.70
2019-01-27T23:26:31.400Z,3.90
2019-01-27T23:28:58.324Z,4.10
2019-01-27T23:31:25.247Z,3.90
2019-01-27T23:33:52.205Z,4.00
2019-01-27T23:36:19.152Z,3.90
2019-01-27T23:38:46.099Z,4.00
2019-01-27T23:41:13.059Z,4.00
2019-01-27T23:43:39.993Z,4.00
2019-01-27T23:46:06.939Z,4.00
2019-01-27T23:48:33.887Z,3.90
2019-01-27T23:51:00.832Z,3.90
2019-01-27T23:53:27.756Z,4.10
2019-01-27T23:55:54.713Z,4.00
2019-01-27T23:58:21.647Z,3.90
